Terminal Aerodrome Forecast
Issued by NWS Grand Forks, ND

Home | Current Version | Previous Version | Text Only | Print | Product List | Glossary On
Versions: 1 2 3 4 5 6 7 8 9 10 11 12 13 14 15 16 17 18 19 20 21 22
893
FTUS43 KFGF 271536 AAB
TAFFAR
TAF AMD
KFAR 271536Z 2716/2812 35013KT P6SM BKN060
      TEMPO 2716/2718 BKN030
     FM280200 32007KT P6SM BKN060
     FM280500 31006KT P6SM SCT070=

USA.gov is the U.S. government's official web portal to all federal, state and local government web resources and services.